Time;durP1;ratioP1;P1;durP2;ratioP2;P2;SDS_P1;SDS_P2;PMS_P1;PMS_P2;Temp;Humidity;BMP_temperature;BMP_pressure;BME280_temperature;BME280_humidity;BME280_pressure;Samples;Min_cycle;Max_cycle;Signal;HPM_P1;HPM_P2
2022/10/22 00:56:35;;;;;;;34.30;13.78;;;;;;;-0.59;100.00;102073.94;1689822;81;21380;-88
2022/10/22 00:59:07;;;;;;;32.93;14.18;;;;;;;-0.62;100.00;102070.23;1616623;85;21027;-88
2022/10/22 01:01:33;;;;;;;32.35;14.83;;;;;;;-0.66;100.00;102074.17;1566933;90;21683;-89
2022/10/22 01:04:04;;;;;;;30.77;14.90;;;;;;;-0.68;100.00;102077.45;1563390;91;21112;-88
2022/10/22 01:06:32;;;;;;;34.00;15.00;;;;;;;-0.70;100.00;102071.49;1577649;89;21170;-88
2022/10/22 01:09:25;;;;;;;41.85;17.48;;;;;;;-0.73;100.00;102068.65;1577426;89;21139;-88
2022/10/22 01:12:08;;;;;;;37.67;16.80;;;;;;;-0.76;100.00;102073.41;1605446;87;21046;-89
2022/10/22 01:14:50;;;;;;;48.20;18.77;;;;;;;-0.81;100.00;102068.55;1601224;87;21034;-88
2022/10/22 01:17:57;;;;;;;46.25;19.30;;;;;;;-0.82;100.00;102073.52;1602075;87;21057;-88
2022/10/22 01:20:40;;;;;;;51.48;19.77;;;;;;;-0.86;100.00;102072.62;1577465;89;21139;-89
2022/10/22 01:23:53;;;;;;;102.70;29.18;;;;;;;-0.88;100.00;102066.63;1608837;86;21548;-88
2022/10/22 01:26:58;;;;;;;128.10;31.48;;;;;;;-0.92;100.00;102072.22;1610472;86;21450;-89
2022/10/22 01:29:45;;;;;;;73.42;22.87;;;;;;;-0.94;100.00;102061.47;1610509;86;21106;-89
2022/10/22 01:32:18;;;;;;;68.17;22.00;;;;;;;-0.97;100.00;102065.24;1595143;89;21096;-88
2022/10/22 01:34:49;;;;;;;40.75;17.32;;;;;;;-0.96;100.00;102065.58;1595230;89;21568;-88
2022/10/22 01:37:19;;;;;;;40.38;17.35;;;;;;;-0.96;100.00;102070.87;1544105;91;21557;-88
2022/10/22 01:39:47;;;;;;;41.28;16.60;;;;;;;-0.97;100.00;102070.53;1514840;94;21072;-88
2022/10/22 01:42:14;;;;;;;49.80;17.65;;;;;;;-0.98;100.00;102068.02;1514795;94;21943;-88
2022/10/22 01:44:48;;;;;;;45.00;17.87;;;;;;;-0.99;100.00;102066.36;1514790;94;21053;-88
2022/10/22 01:47:57;;;;;;;52.78;17.48;;;;;;;-0.99;100.00;102069.84;1514473;94;21109;-88
2022/10/22 01:50:51;;;;;;;73.17;18.67;;;;;;;-0.97;100.00;102065.24;1514739;94;21045;-88
2022/10/22 01:54:06;;;;;;;63.30;18.35;;;;;;;-1.02;100.00;102064.84;1514793;94;21069;-88
2022/10/22 01:56:50;;;;;;;64.05;19.87;;;;;;;-1.05;100.00;102063.81;1520104;92;21214;-88
2022/10/22 01:59:40;;;;;;;41.00;17.10;;;;;;;-1.09;100.00;102065.07;1480753;95;21111;-88
2022/10/22 02:02:35;;;;;;;46.42;18.40;;;;;;;-1.09;100.00;102066.89;1456876;97;21478;-88
2022/10/22 02:05:18;;;;;;;42.40;17.67;;;;;;;-1.09;100.00;102065.56;1456826;97;21119;-88
2022/10/22 02:08:02;;;;;;;44.15;17.57;;;;;;;-1.08;100.00;102070.72;1456455;97;21167;-88
2022/10/22 02:10:30;;;;;;;39.33;17.48;;;;;;;-1.09;100.00;102076.14;1414956;98;21715;-88
2022/10/22 02:12:58;;;;;;;40.90;18.48;;;;;;;-1.09;100.00;102084.08;1432144;98;21108;-88
2022/10/22 02:15:31;;;;;;;38.67;17.23;;;;;;;-1.10;100.00;102081.93;1414657;101;21110;-89
2022/10/22 02:18:00;;;;;;;39.73;16.77;;;;;;;-1.10;100.00;102083.25;1431671;97;21563;-88
2022/10/22 02:20:33;;;;;;;42.85;18.25;;;;;;;-1.20;100.00;102056.03;1399186;101;21168;-88
2022/10/22 02:23:00;;;;;;;48.00;17.82;;;;;;;-1.08;100.00;102081.80;1397486;102;21287;-88
2022/10/22 02:25:31;;;;;;;40.70;18.35;;;;;;;-1.08;100.00;102077.34;1399364;100;21062;-89
2022/10/22 02:28:17;;;;;;;41.83;18.15;;;;;;;-1.07;100.00;102076.84;1399392;102;21744;-88
2022/10/22 02:30:53;;;;;;;37.73;16.55;;;;;;;-1.03;100.00;102070.27;1399393;100;21603;-88
2022/10/22 02:33:27;;;;;;;44.00;17.87;;;;;;;-1.02;100.00;102074.59;1412111;96;21275;-88
2022/10/22 02:35:56;;;;;;;42.23;18.27;;;;;;;-1.02;100.00;102074.10;1493073;94;21649;-88
2022/10/22 02:38:29;;;;;;;45.25;18.55;;;;;;;-1.02;100.00;102075.42;1486899;96;21109;-89
2022/10/22 02:40:58;;;;;;;43.83;18.92;;;;;;;-1.02;100.00;102079.39;1428736;98;21122;-88
2022/10/22 02:43:27;;;;;;;43.55;17.90;;;;;;;-1.01;100.00;102081.55;1456598;96;21161;-88
2022/10/22 02:45:52;;;;;;;39.42;17.02;;;;;;;-1.01;100.00;102080.22;1434594;99;21152;-88
2022/10/22 02:48:18;;;;;;;43.50;18.92;;;;;;;-1.01;100.00;102082.86;1481658;95;21154;-88
2022/10/22 02:50:46;;;;;;;46.33;19.48;;;;;;;-1.01;100.00;102090.80;1455036;97;21129;-88
2022/10/22 02:53:12;;;;;;;43.80;18.35;;;;;;;-1.01;100.00;102084.19;1395772;102;21125;-88
2022/10/22 02:55:41;;;;;;;42.98;18.90;;;;;;;-1.01;100.00;102084.19;1399913;100;21139;-87
2022/10/22 02:58:08;;;;;;;45.23;18.45;;;;;;;-1.02;100.00;102086.50;1407384;100;21255;-88
2022/10/22 03:00:34;;;;;;;45.58;19.00;;;;;;;-1.03;100.00;102084.81;1407984;100;21341;-87
2022/10/22 03:03:00;;;;;;;43.98;19.17;;;;;;;-1.03;100.00;102088.31;1407896;100;21324;-87
2022/10/22 03:05:26;;;;;;;44.58;18.17;;;;;;;-1.01;100.00;102090.80;1407931;100;21230;-87
2022/10/22 03:07:52;;;;;;;44.00;19.55;;;;;;;-1.01;100.00;102094.27;1407858;100;21180;-87
2022/10/22 03:10:18;;;;;;;43.50;18.73;;;;;;;-1.02;100.00;102097.91;1407972;100;21163;-87
2022/10/22 03:12:45;;;;;;;43.52;18.42;;;;;;;-1.02;100.00;102102.38;1407687;100;21696;-88
2022/10/22 03:15:13;;;;;;;41.40;19.23;;;;;;;-1.05;100.00;102102.17;1407943;100;21174;-87
2022/10/22 03:17:41;;;;;;;43.40;18.15;;;;;;;-1.05;100.00;102102.17;1424375;97;21098;-87
2022/10/22 03:20:08;;;;;;;45.12;19.20;;;;;;;-1.07;100.00;102097.51;1447003;97;21113;-87
2022/10/22 03:22:35;;;;;;;42.55;17.62;;;;;;;-1.09;100.00;102098.13;1441524;97;21114;-87
2022/10/22 03:25:07;;;;;;;37.55;17.37;;;;;;;-1.08;100.00;102097.67;1467673;95;21208;-87
2022/10/22 03:27:38;;;;;;;43.30;18.23;;;;;;;-1.09;100.00;102097.30;1475584;95;21607;-87
2022/10/22 03:30:11;;;;;;;42.90;18.60;;;;;;;-1.09;100.00;102099.45;1475684;95;21132;-87
2022/10/22 03:32:39;;;;;;;45.63;17.73;;;;;;;-1.11;100.00;102100.11;1475479;95;21155;-88
2022/10/22 03:35:08;;;;;;;52.67;21.70;;;;;;;-1.12;100.00;102096.28;1485597;95;21652;-87
2022/10/22 03:37:38;;;;;;;80.25;31.33;;;;;;;-1.14;100.00;102097.77;1531849;90;21103;-88
2022/10/22 03:40:07;;;;;;;126.75;44.80;;;;;;;-1.15;100.00;102098.72;1521094;92;21786;-87
2022/10/22 03:42:33;;;;;;;75.47;31.40;;;;;;;-1.13;100.00;102091.98;1497480;94;21098;-87
2022/10/22 03:44:59;;;;;;;64.53;24.50;;;;;;;-1.13;100.00;102090.16;1497621;95;21593;-87
2022/10/22 03:47:26;;;;;;;40.73;18.23;;;;;;;-1.15;100.00;102086.81;1497801;95;21038;-87
2022/10/22 03:49:52;;;;;;;36.75;15.30;;;;;;;-1.16;100.00;102082.02;1497271;95;21964;-87
2022/10/22 03:52:18;;;;;;;39.65;16.57;;;;;;;-1.15;100.00;102085.03;1497414;94;21034;-87
2022/10/22 03:54:44;;;;;;;44.58;17.62;;;;;;;-1.13;100.00;102082.22;1497531;95;21631;-88
2022/10/22 03:57:11;;;;;;;45.75;17.30;;;;;;;-1.12;100.00;102081.23;1499649;93;21164;-88
2022/10/22 03:59:41;;;;;;;39.53;17.27;;;;;;;-1.11;100.00;102082.92;1502291;93;21126;-88
2022/10/22 04:02:09;;;;;;;46.30;18.67;;;;;;;-1.10;100.00;102081.10;1518094;94;21113;-87
2022/10/22 04:04:36;;;;;;;41.50;18.42;;;;;;;-1.10;100.00;102081.93;1518080;94;21128;-88
2022/10/22 04:07:02;;;;;;;38.80;16.80;;;;;;;-1.07;100.00;102084.77;1517926;94;21175;-88
2022/10/22 04:09:31;;;;;;;44.18;17.20;;;;;;;-1.05;100.00;102084.98;1518084;93;21077;-87
2022/10/22 04:11:58;;;;;;;34.05;15.93;;;;;;;-1.03;100.00;102083.03;1518390;94;21127;-86
2022/10/22 04:14:24;;;;;;;38.42;14.83;;;;;;;-1.01;100.00;102088.16;1534570;91;21194;-88
2022/10/22 04:16:50;;;;;;;38.98;16.77;;;;;;;-0.98;100.00;102089.19;1570024;91;21061;-87
2022/10/22 04:19:17;;;;;;;35.38;15.18;;;;;;;-0.92;100.00;102087.27;1548478;91;20952;-88
2022/10/22 04:21:43;;;;;;;35.05;15.08;;;;;;;-0.83;100.00;102090.35;1548389;92;21074;-87
2022/10/22 04:24:09;;;;;;;33.98;13.98;;;;;;;-0.72;100.00;102088.83;1548864;92;21133;-87
2022/10/22 04:26:35;;;;;;;39.25;14.75;;;;;;;-0.61;100.00;102086.48;1548572;92;21110;-87
2022/10/22 04:29:01;;;;;;;32.63;13.38;;;;;;;-0.49;100.00;102094.55;1548340;92;21250;-87
2022/10/22 04:31:27;;;;;;;36.05;13.80;;;;;;;-0.38;100.00;102090.86;1548460;92;21617;-87
2022/10/22 04:33:56;;;;;;;34.88;13.70;;;;;;;-0.29;100.00;102087.80;1548376;92;21606;-87
2022/10/22 04:36:23;;;;;;;35.85;13.22;;;;;;;-0.20;100.00;102091.35;1547069;92;21962;-87
2022/10/22 04:38:55;;;;;;;34.25;14.50;;;;;;;-0.07;100.00;102091.28;1548375;92;21227;-87
2022/10/22 04:41:26;;;;;;;35.92;14.65;;;;;;;0.07;100.00;102090.42;1548787;92;21075;-88
2022/10/22 04:43:54;;;;;;;36.38;14.10;;;;;;;0.21;100.00;102101.80;1495700;95;21099;-88
2022/10/22 04:46:21;;;;;;;30.82;13.45;;;;;;;0.36;100.00;102098.09;1514605;92;21109;-88
2022/10/22 04:48:47;;;;;;;41.92;13.80;;;;;;;0.52;100.00;102098.18;1507708;95;21635;-87
2022/10/22 04:51:18;;;;;;;31.30;13.75;;;;;;;0.70;100.00;102102.09;1508026;95;21289;-88
2022/10/22 04:53:45;;;;;;;26.77;12.55;;;;;;;0.88;100.00;102097.58;1507741;95;21100;-87
2022/10/22 04:56:20;;;;;;;34.23;13.03;;;;;;;1.23;100.00;102102.34;1507735;94;21150;-87
2022/10/22 04:58:49;;;;;;;31.45;12.33;;;;;;;1.96;100.00;102106.14;1528815;91;21115;-88
2022/10/22 05:01:22;;;;;;;31.30;14.68;;;;;;;2.08;100.00;102102.66;1564779;90;22355;-86
2022/10/22 05:03:51;;;;;;;32.83;13.43;;;;;;;2.08;100.00;102107.97;1564697;90;21353;-86
2022/10/22 05:06:19;;;;;;;30.02;13.60;;;;;;;2.18;100.00;102113.97;1564837;90;21598;-86
2022/10/22 05:08:46;;;;;;;32.75;12.43;;;;;;;2.32;100.00;102108.45;1564033;90;21076;-86
2022/10/22 05:11:17;;;;;;;31.07;12.43;;;;;;;2.33;100.00;102115.45;1564546;90;21650;-85
2022/10/22 05:13:43;;;;;;;29.07;13.10;;;;;;;2.44;100.00;102117.75;1508179;93;21099;-85
2022/10/22 05:16:09;;;;;;;26.37;12.13;;;;;;;2.53;100.00;102116.77;1504897;93;21284;-85
2022/10/22 05:18:38;;;;;;;29.65;12.37;;;;;;;2.63;100.00;102120.06;1508150;93;21625;-85
2022/10/22 05:21:13;;;;;;;29.30;12.70;;;;;;;2.76;100.00;102124.02;1508289;93;21550;-85
2022/10/22 05:23:38;;;;;;;27.42;12.03;;;;;;;3.08;100.00;102120.42;1505828;93;21153;-84
2022/10/22 05:26:27;;;;;;;;;;;;;;;;;;;;;
2022/10/22 05:28:47;;;;;;;27.77;11.93;;;;;;;3.55;100.00;102124.86;1484762;95;21126;-83
2022/10/22 05:31:14;;;;;;;26.93;11.65;;;;;;;3.60;100.00;102123.34;1467129;95;21174;-83
2022/10/22 05:33:41;;;;;;;33.78;13.83;;;;;;;3.59;100.00;102115.53;1485170;95;21099;-83
2022/10/22 05:36:15;;;;;;;32.10;13.45;;;;;;;3.58;100.00;102121.34;1484673;95;21623;-82
2022/10/22 05:38:41;;;;;;;34.98;12.75;;;;;;;3.65;100.00;102126.82;1480538;95;21652;-82
2022/10/22 05:41:12;;;;;;;30.08;12.88;;;;;;;3.79;100.00;102126.03;1437225;98;21154;-83
2022/10/22 05:43:39;;;;;;;33.15;12.90;;;;;;;3.94;100.00;102128.80;1436793;98;21697;-83
2022/10/22 05:46:12;;;;;;;34.65;14.25;;;;;;;4.08;100.00;102122.66;1437082;98;21162;-83
2022/10/22 05:48:39;;;;;;;36.08;13.50;;;;;;;4.24;100.00;102126.23;1470319;95;21164;-83
2022/10/22 05:51:08;;;;;;;31.05;13.90;;;;;;;4.20;100.00;102128.91;1494548;94;21118;-84
2022/10/22 05:53:53;;;;;;;;;;;;;;;;;;;;;
2022/10/22 05:56:13;;;;;;;31.90;13.90;;;;;;;4.48;100.00;102134.00;1493809;94;21123;-84
2022/10/22 05:58:40;;;;;;;30.77;14.70;;;;;;;4.95;100.00;102133.36;1498229;94;21115;-84
2022/10/22 06:01:17;;;;;;;42.08;17.23;;;;;;;5.20;100.00;102139.23;1503245;94;21231;-85
2022/10/22 06:03:44;;;;;;;38.85;17.55;;;;;;;5.23;100.00;102141.53;1494291;95;21252;-84
2022/10/22 06:06:44;;;;;;;34.98;15.75;;;;;;;5.25;100.00;102131.49;1492282;94;21153;-85
2022/10/22 06:09:18;;;;;;;35.75;15.83;;;;;;;5.20;100.00;102136.05;1491978;94;21626;-85
2022/10/22 06:11:44;;;;;;;;;;;;;;;5.33;100.00;102140.75;1512009;93;21588;-86
2022/10/22 06:14:11;;;;;;;32.80;14.58;;;;;;;5.45;100.00;102135.75;1505027;93;20187;-86
2022/10/22 06:16:37;;;;;;;34.15;13.75;;;;;;;5.52;100.00;102132.64;1504625;93;21659;-86
2022/10/22 06:19:04;;;;;;;34.83;14.03;;;;;;;5.61;100.00;102136.03;1505227;93;21128;-85
2022/10/22 06:21:31;;;;;;;31.85;12.95;;;;;;;5.63;100.00;102134.83;1505116;93;21623;-86
2022/10/22 06:23:59;;;;;;;30.75;13.62;;;;;;;5.80;100.00;102130.59;1504835;93;21107;-85
2022/10/22 06:26:25;;;;;;;30.30;14.43;;;;;;;6.14;100.00;102129.91;1541534;92;21155;-86
2022/10/22 06:28:52;;;;;;;29.45;13.35;;;;;;;6.86;100.00;102134.69;1527609;94;21063;-86
2022/10/22 06:31:18;;;;;;;27.32;13.72;;;;;;;7.78;100.00;102124.02;1527601;94;21659;-85
2022/10/22 06:33:44;;;;;;;24.23;11.73;;;;;;;9.03;100.00;102121.83;1527538;94;21570;-86
2022/10/22 06:36:14;;;;;;;22.45;11.08;;;;;;;10.26;100.00;102115.31;1544604;92;21079;-85
2022/10/22 06:38:41;;;;;;;23.27;11.60;;;;;;;11.10;100.00;102109.02;1550272;92;21043;-85
2022/10/22 06:41:11;;;;;;;24.10;11.48;;;;;;;12.13;100.00;102103.14;1598820;86;21039;-85
2022/10/22 06:43:38;;;;;;;23.65;12.05;;;;;;;13.40;100.00;102099.19;1645009;87;21146;-85
2022/10/22 06:46:08;;;;;;;26.75;11.40;;;;;;;14.50;100.00;102096.14;1644788;87;21039;-84
2022/10/22 06:48:36;;;;;;;20.23;10.70;;;;;;;14.93;100.00;102095.42;1644862;87;20976;-85
2022/10/22 06:51:06;;;;;;;22.25;10.80;;;;;;;15.43;100.00;102094.37;1644740;87;21103;-85
2022/10/22 06:53:32;;;;;;;19.42;11.33;;;;;;;15.23;100.00;102090.07;1644458;87;21043;-85
2022/10/22 06:56:00;;;;;;;20.17;10.20;;;;;;;14.74;100.00;102094.09;1701312;83;21250;-85
2022/10/22 06:58:26;;;;;;;19.00;9.15;;;;;;;14.41;100.00;102099.84;1730981;82;21308;-85
2022/10/22 07:01:09;;;;;;;19.70;10.48;;;;;;;14.47;100.00;102094.78;1736206;82;21195;-84
2022/10/22 07:03:37;;;;;;;23.45;9.08;;;;;;;14.93;100.00;102094.60;1644258;85;20989;-85
2022/10/22 07:06:07;;;;;;;19.52;9.55;;;;;;;15.24;100.00;102089.56;1621772;87;21124;-85
2022/10/22 07:08:34;;;;;;;19.35;9.15;;;;;;;15.50;100.00;102093.34;1643933;85;21340;-85
2022/10/22 07:11:17;;;;;;;19.50;9.03;;;;;;;15.59;100.00;102090.48;1643982;85;21037;-85
2022/10/22 07:13:43;;;;;;;22.48;9.85;;;;;;;15.75;100.00;102090.92;1613669;87;21611;-84
2022/10/22 07:16:21;;;;;;;;;;;;;;;;;;;;;
2022/10/22 07:18:40;;;;;;;16.23;9.08;;;;;;;18.32;100.00;102093.63;1548820;92;21100;-85
2022/10/22 07:21:16;;;;;;;15.10;8.83;;;;;;;19.27;100.00;102102.38;1549141;91;21116;-85
2022/10/22 07:23:41;;;;;;;12.73;8.18;;;;;;;19.39;100.00;102103.41;1547011;92;21125;-84
2022/10/22 07:26:08;;;;;;;18.77;9.03;;;;;;;20.48;100.00;102091.34;1548956;92;21436;-86
2022/10/22 07:28:39;;;;;;;14.30;8.38;;;;;;;20.85;98.06;102094.77;1549439;92;21123;-85
2022/10/22 07:31:09;;;;;;;17.23;9.63;;;;;;;20.07;91.15;102085.70;1548928;92;21080;-84
2022/10/22 07:33:36;;;;;;;20.43;9.25;;;;;;;19.20;86.45;102086.83;1549419;91;21799;-84
2022/10/22 07:36:06;;;;;;;25.10;11.53;;;;;;;18.54;89.72;102083.23;1549672;91;21065;-83
2022/10/22 07:38:33;;;;;;;21.73;10.40;;;;;;;18.61;98.67;102087.02;1549606;92;21088;-83
2022/10/22 07:41:00;;;;;;;15.10;9.03;;;;;;;19.40;96.16;102085.34;1549461;92;21088;-83
2022/10/22 07:43:26;;;;;;;14.70;8.28;;;;;;;19.17;91.38;102084.66;1549418;91;21069;-83
2022/10/22 07:45:54;;;;;;;18.42;9.28;;;;;;;18.70;91.13;102083.18;1558128;92;21766;-84
2022/10/22 07:48:20;;;;;;;19.35;9.45;;;;;;;18.30;91.01;102078.09;1558211;90;21579;-83
2022/10/22 07:50:48;;;;;;;17.73;9.25;;;;;;;18.52;96.01;102081.31;1558677;92;20955;-84
2022/10/22 07:53:14;;;;;;;21.40;10.08;;;;;;;19.32;97.65;102079.09;1558772;92;21142;-84
2022/10/22 07:55:41;;;;;;;18.92;10.10;;;;;;;21.03;100.00;102069.35;1580774;87;21555;-84
2022/10/22 07:58:12;;;;;;;17.30;8.93;;;;;;;23.08;91.93;102061.72;1611925;87;21030;-85
2022/10/22 08:00:38;;;;;;;13.13;7.22;;;;;;;24.33;77.20;102057.30;1748321;82;21511;-83
2022/10/22 08:03:04;;;;;;;12.73;6.08;;;;;;;25.56;66.94;102057.25;1742997;82;20999;-83
2022/10/22 08:05:30;;;;;;;10.55;6.33;;;;;;;26.07;60.24;102057.51;1777919;80;20855;-83
2022/10/22 08:07:59;;;;;;;10.40;5.30;;;;;;;25.98;55.32;102057.53;1777081;79;20999;-82
2022/10/22 08:10:27;;;;;;;9.35;5.50;;;;;;;24.78;53.76;102049.45;1747174;80;21142;-83
2022/10/22 08:13:00;;;;;;;10.05;5.37;;;;;;;24.12;52.82;102052.07;1739308;82;21252;-83
2022/10/22 08:15:30;;;;;;;10.15;5.72;;;;;;;23.60;52.78;102063.55;1710797;82;21081;-83
2022/10/22 08:18:06;;;;;;;7.85;4.95;;;;;;;22.75;53.19;102063.78;1665189;84;21157;-83
2022/10/22 08:20:35;;;;;;;8.20;4.78;;;;;;;22.59;54.05;102066.00;1625920;87;21511;-83
2022/10/22 08:23:21;;;;;;;10.60;5.17;;;;;;;22.80;54.68;102065.05;1624214;88;21825;-84
2022/10/22 08:25:47;;;;;;;10.28;4.78;;;;;;;23.18;55.14;102064.26;1553155;91;21124;-83
2022/10/22 08:31:16;;;;;;;8.38;3.30;;;;;;;23.21;51.37;102054.58;1430044;98;22403;-83
2022/10/22 08:34:13;;;;;;;5.67;3.08;;;;;;;22.15;49.90;102050.34;1356103;104;21278;-83
2022/10/22 08:37:12;;;;;;;;;;;;;;;;;;;;;
2022/10/22 08:44:46;;;;;;;;;;;;;;;;;;;;;
2022/10/22 08:48:49;;;;;;;;;;;;;;;;;;;;;
2022/10/22 08:51:23;;;;;;;4.42;2.30;;;;;;;;;;1280748;112;21219;-84
2022/10/22 08:54:20;;;;;;;;;;;;;;;;;;;;;
2022/10/22 08:57:28;;;;;;;;;;;;;;;;;;;;;
2022/10/22 09:07:29;;;;;;;;;;;;;;;;;;;;;
2022/10/22 09:18:01;;;;;;;;;;;;;;;;;;;;;
2022/10/22 09:21:40;;;;;;;4.58;2.20;;;;;;;14.86;89.40;102040.51;1293618;109;21270;-83
2022/10/22 09:24:44;;;;;;;4.37;2.37;;;;;;;14.83;95.15;102033.42;1279889;110;21314;-83
2022/10/22 09:28:01;;;;;;;;;;;;;;;;;;;;;
2022/10/22 09:30:28;;;;;;;6.10;2.40;;;;;;;15.08;94.70;102036.41;1282853;110;20258;-83
2022/10/22 09:33:34;;;;;;;6.15;2.65;;;;;;;15.01;92.97;102038.52;1271471;111;21434;-82
2022/10/22 09:40:23;;;;;;;4.80;2.52;;;;;;;14.48;97.82;102035.38;1294312;108;21261;-83
2022/10/22 09:50:40;;;;;;;;;;;;;;;;;;;;;
2022/10/22 09:53:41;;;;;;;3.17;2.20;;;;;;;14.39;100.00;102025.22;1267288;111;21716;-83
2022/10/22 14:22:19;;;;;;;8.88;4.25;;;;;;;10.22;100.00;101805.64;1800987;77;22614;-85
2022/10/22 14:24:46;;;;;;;12.88;4.83;;;;;;;10.20;100.00;101806.39;1769254;79;20990;-84
2022/10/22 14:27:14;;;;;;;12.75;5.80;;;;;;;10.24;100.00;101805.72;1829608;77;21479;-84
2022/10/22 14:29:41;;;;;;;10.58;4.42;;;;;;;10.28;100.00;101805.30;1830425;77;21526;-83
2022/10/22 14:32:19;;;;;;;11.85;5.03;;;;;;;10.31;100.00;101800.80;1831305;77;21064;-83
2022/10/22 14:34:46;;;;;;;9.35;4.60;;;;;;;10.34;100.00;101801.16;1741050;81;21192;-83
2022/10/22 14:37:19;;;;;;;11.08;4.65;;;;;;;10.32;100.00;101798.39;1743538;81;21082;-83
2022/10/22 14:43:30;;;;;;;22.65;8.28;;;;;;;10.29;100.00;101793.45;1659887;84;21162;-85
2022/10/22 14:46:01;;;;;;;17.02;6.03;;;;;;;10.26;100.00;101802.78;1674536;83;21579;-85
2022/10/22 14:48:27;;;;;;;19.48;5.97;;;;;;;10.26;100.00;101795.23;1582085;89;21170;-85
2022/10/22 14:50:54;;;;;;;20.35;7.10;;;;;;;10.22;100.00;101798.91;1534647;91;21096;-85
2022/10/22 15:00:42;;;;;;;16.95;6.08;;;;;;;10.15;100.00;101786.88;1528009;92;21167;-82
2022/10/22 15:03:10;;;;;;;15.32;6.30;;;;;;;10.07;100.00;101775.07;1594118;88;21193;-83
2022/10/22 15:15:54;;;;;;;;;;;;;;;;;;;;;
2022/10/22 15:25:37;;;;;;;30.35;11.22;;;;;;;9.64;100.00;101778.69;1387491;102;21466;-83
2022/10/22 15:28:38;;;;;;;;;;;;;;;;;;;;;
2022/10/22 15:34:34;;;;;;;;;;;;;;;;;;;;;
2022/10/22 15:40:38;;;;;;;25.20;7.22;;;;;;;9.44;100.00;101777.58;1225304;116;21451;-82
2022/10/22 15:49:41;;;;;;;53.02;13.95;;;;;;;9.39;100.00;101767.17;1223628;115;21771;-82
2022/10/22 15:52:08;;;;;;;39.55;11.95;;;;;;;9.36;100.00;101765.75;1219619;116;21145;-84
2022/10/22 15:54:35;;;;;;;36.98;10.45;;;;;;;9.34;100.00;101762.45;1215637;116;21328;-83
2022/10/22 15:57:21;;;;;;;18.48;7.00;;;;;;;9.34;100.00;101767.83;1213414;116;21317;-84
2022/10/22 15:59:39;;;;;;;23.15;7.22;;;;;;;9.32;100.00;101769.41;1253259;111;21326;-81
2022/10/22 16:05:36;;;;;;;24.37;6.95;;;;;;;9.28;100.00;101769.54;1315534;104;21700;-83
2022/10/22 16:08:07;;;;;;;31.77;8.48;;;;;;;9.22;100.00;101770.96;1372191;101;21377;-81
2022/10/22 16:10:38;;;;;;;31.48;9.93;;;;;;;9.18;100.00;101768.42;1379592;102;21213;-82
2022/10/22 16:13:03;;;;;;;36.60;10.25;;;;;;;9.15;100.00;101763.45;1352010;102;21217;-81
2022/10/22 16:15:46;;;;;;;;;;;;;;;;;;;;;
2022/10/22 16:18:08;;;;;;;26.10;7.92;;;;;;;9.09;100.00;101762.50;1484295;95;21657;-83
2022/10/22 16:20:44;;;;;;;28.38;9.45;;;;;;;9.07;100.00;101759.20;1499245;94;21838;-82
2022/10/22 16:23:23;;;;;;;;;;;;;;;;;;;;;
2022/10/22 16:25:45;;;;;;;27.30;8.38;;;;;;;9.02;100.00;101763.88;1467205;96;21221;-83
2022/10/22 16:31:44;;;;;;;20.57;6.92;;;;;;;8.96;100.00;101762.08;1427277;98;21224;-82
2022/10/22 16:34:12;;;;;;;26.80;6.83;;;;;;;8.94;100.00;101761.99;1416855;98;21348;-83
2022/10/22 16:36:47;;;;;;;18.65;6.50;;;;;;;8.93;100.00;101765.20;1433288;98;21218;-82
2022/10/22 16:39:13;;;;;;;19.17;6.55;;;;;;;8.91;100.00;101757.88;1404924;99;21120;-83
2022/10/22 16:41:40;;;;;;;16.15;6.08;;;;;;;8.91;100.00;101768.63;1414976;98;21108;-83
2022/10/22 16:44:07;;;;;;;19.48;5.87;;;;;;;8.91;100.00;101767.28;1408406;98;21124;-83
2022/10/22 16:49:06;;;;;;;17.82;6.37;;;;;;;8.92;100.00;101754.16;1381657;103;21223;-82
2022/10/22 16:51:35;;;;;;;16.97;7.00;;;;;;;8.92;100.00;101755.51;1383457;102;21202;-82
2022/10/22 16:54:01;;;;;;;20.57;6.25;;;;;;;8.92;100.00;101756.03;1371358;102;21214;-83
2022/10/22 16:56:35;;;;;;;19.90;7.05;;;;;;;8.93;100.00;101749.61;1417781;97;21176;-83
2022/10/22 16:58:59;;;;;;;19.90;6.53;;;;;;;8.93;100.00;101746.91;1366095;102;21626;-83
2022/10/22 17:01:28;;;;;;;22.75;7.37;;;;;;;8.91;100.00;101749.81;1360958;103;21136;-82
2022/10/22 17:04:00;;;;;;;17.62;6.03;;;;;;;8.87;100.00;101738.68;1403365;100;21164;-83
2022/10/22 17:06:26;;;;;;;14.00;5.10;;;;;;;8.87;100.00;101737.86;1408501;100;21219;-82
2022/10/22 17:08:54;;;;;;;13.20;4.75;;;;;;;8.89;100.00;101737.13;1402720;101;21773;-83
2022/10/22 17:11:24;;;;;;;16.00;5.62;;;;;;;8.89;100.00;101734.44;1415239;100;22014;-82
2022/10/22 17:13:53;;;;;;;11.53;5.33;;;;;;;8.89;100.00;101734.97;1416616;98;21231;-82
2022/10/22 17:16:23;;;;;;;12.37;5.83;;;;;;;8.91;100.00;101732.86;1443159;97;21361;-86
2022/10/22 17:18:54;;;;;;;13.80;5.90;;;;;;;8.93;100.00;101735.64;1438213;97;21204;-83
2022/10/22 17:21:22;;;;;;;18.80;5.42;;;;;;;8.95;100.00;101725.50;1438536;98;21230;-83
2022/10/22 17:23:54;;;;;;;19.12;6.22;;;;;;;8.97;100.00;101734.67;1480480;95;21388;-83
2022/10/22 17:26:32;;;;;;;;;;;;;;;;;;;;;
2022/10/22 17:28:54;;;;;;;22.27;6.62;;;;;;;8.97;100.00;101731.48;1420403;99;21307;-82
2022/10/22 17:31:38;;;;;;;;;;;;;;;;;;;;;
2022/10/22 17:33:56;;;;;;;16.37;5.95;;;;;;;9.00;100.00;101718.94;1398850;98;21174;-82
2022/10/22 17:39:44;;;;;;;17.52;6.30;;;;;;;9.04;100.00;101710.72;1403622;99;21238;-83
2022/10/22 17:42:17;;;;;;;14.75;5.58;;;;;;;9.05;100.00;101707.50;1409663;99;21230;-83
2022/10/22 17:44:43;;;;;;;11.37;4.80;;;;;;;9.06;100.00;101703.27;1361588;102;21302;-83
2022/10/22 17:47:15;;;;;;;13.85;5.30;;;;;;;9.06;100.00;101699.23;1360328;103;21422;-83
2022/10/22 17:49:44;;;;;;;13.37;5.43;;;;;;;9.06;100.00;101692.51;1340926;104;21346;-82
2022/10/22 17:52:12;;;;;;;17.80;5.00;;;;;;;9.05;100.00;101692.19;1356866;100;21153;-82
2022/10/22 17:54:42;;;;;;;11.03;5.30;;;;;;;9.06;100.00;101690.34;1398140;100;22013;-83
2022/10/22 17:57:09;;;;;;;12.50;5.45;;;;;;;9.05;100.00;101697.56;1368381;102;22276;-87
2022/10/22 17:59:36;;;;;;;9.55;4.47;;;;;;;9.06;100.00;101699.23;1352626;102;21228;-89
2022/10/22 18:02:02;;;;;;;12.15;4.53;;;;;;;9.07;100.00;101692.80;1354866;102;22010;-83
2022/10/22 18:04:34;;;;;;;11.10;4.45;;;;;;;9.07;100.00;101692.80;1357934;102;21370;-83
2022/10/22 18:07:00;;;;;;;16.65;4.75;;;;;;;9.09;100.00;101696.62;1365649;102;21123;-84
2022/10/22 18:09:28;;;;;;;9.28;3.80;;;;;;;9.09;100.00;101689.90;1420947;98;21218;-83
2022/10/22 18:11:58;;;;;;;12.85;4.53;;;;;;;9.08;100.00;101685.55;1434156;98;21295;-83
2022/10/22 18:14:26;;;;;;;9.30;3.83;;;;;;;9.09;100.00;101681.30;1465725;96;22877;-83
2022/10/22 18:16:53;;;;;;;16.32;4.55;;;;;;;9.10;100.00;101679.44;1429279;99;21167;-83
2022/10/22 18:19:24;;;;;;;8.65;4.12;;;;;;;9.10;100.00;101668.15;1432017;98;21500;-82
2022/10/22 18:21:49;;;;;;;7.55;3.45;;;;;;;9.10;100.00;101666.80;1427931;98;21237;-83
2022/10/22 18:24:18;;;;;;;9.15;3.80;;;;;;;9.13;100.00;101668.76;1423727;99;21177;-82
2022/10/22 18:26:47;;;;;;;10.60;3.67;;;;;;;9.13;100.00;101666.89;1411130;99;21769;-82
2022/10/22 18:31:57;;;;;;;11.60;4.20;;;;;;;9.16;100.00;101661.59;1390199;102;21228;-84
2022/10/22 18:34:28;;;;;;;9.03;3.87;;;;;;;9.17;100.00;101657.31;1393566;102;21171;-82
2022/10/22 18:36:55;;;;;;;6.87;3.40;;;;;;;9.19;100.00;101662.48;1371604;102;21188;-82
2022/10/22 18:39:23;;;;;;;6.45;3.17;;;;;;;9.20;100.00;101656.05;1368712;102;21333;-82
2022/10/22 18:41:51;;;;;;;8.95;3.25;;;;;;;9.21;100.00;101665.25;1371210;103;21676;-83
2022/10/22 18:44:27;;;;;;;9.08;3.22;;;;;;;9.25;100.00;101668.30;1362851;103;21205;-83
2022/10/22 18:46:58;;;;;;;6.53;2.90;;;;;;;9.28;100.00;101665.16;1391857;98;21132;-79
2022/10/22 18:49:32;;;;;;;5.55;2.95;;;;;;;9.30;100.00;101661.21;1431903;98;21404;-82
2022/10/22 18:51:58;;;;;;;5.78;2.87;;;;;;;9.33;100.00;101658.59;1431538;98;21204;-82